createdAt,value
2023-04-30T00:02:19.923Z,8.73
2023-04-30T00:04:46.390Z,9.57
2023-04-30T00:07:12.821Z,10.02
2023-04-30T00:09:39.328Z,9.93
2023-04-30T00:12:05.902Z,10.77
2023-04-30T00:14:32.337Z,9.88
2023-04-30T00:16:58.703Z,9.25
2023-04-30T00:19:25.180Z,10.35
2023-04-30T00:21:51.579Z,9.43
2023-04-30T00:24:17.976Z,10.90
2023-04-30T00:26:44.374Z,11.00
2023-04-30T00:29:11.217Z,10.77
2023-04-30T00:31:37.705Z,9.65
2023-04-30T00:34:04.163Z,9.40
2023-04-30T00:36:31.768Z,8.40
2023-04-30T00:38:58.157Z,9.13
2023-04-30T00:41:25.732Z,9.75
2023-04-30T00:43:52.119Z,11.63
2023-04-30T00:46:18.597Z,11.68
2023-04-30T00:48:45.060Z,12.02
2023-04-30T00:51:11.545Z,12.25
2023-04-30T00:53:39.321Z,12.27
2023-04-30T00:56:06.038Z,12.55
2023-04-30T00:58:32.421Z,12.85
2023-04-30T01:00:59.013Z,12.23
2023-04-30T01:03:25.618Z,12.63
2023-04-30T01:05:53.630Z,12.80
2023-04-30T01:08:20.245Z,11.95
2023-04-30T01:11:17.165Z,11.52
2023-04-30T01:13:58.867Z,9.73
2023-04-30T01:16:41.655Z,9.93
2023-04-30T01:19:34.249Z,11.00
2023-04-30T01:24:36.984Z,11.35
2023-04-30T01:27:21.565Z,11.02
2023-04-30T01:29:48.271Z,9.77
2023-04-30T01:32:14.649Z,11.85
2023-04-30T01:34:41.056Z,11.73
2023-04-30T01:37:22.872Z,11.38
2023-04-30T01:40:25.179Z,12.90
2023-04-30T01:43:10.393Z,12.60
2023-04-30T01:45:55.330Z,12.63
2023-04-30T01:48:47.432Z,12.85
2023-04-30T01:51:19.928Z,12.38
2023-04-30T01:53:47.059Z,10.82
2023-04-30T01:56:32.903Z,11.15
2023-04-30T01:58:59.968Z,11.55
2023-04-30T02:01:30.213Z,11.57
2023-04-30T02:03:56.963Z,12.18
2023-04-30T02:06:29.988Z,11.98
2023-04-30T02:09:03.175Z,11.82
2023-04-30T02:11:29.939Z,13.73
2023-04-30T02:13:56.318Z,14.43
2023-04-30T02:16:23.350Z,12.50
2023-04-30T02:18:49.786Z,13.20
2023-04-30T02:21:16.238Z,12.43
2023-04-30T02:23:42.645Z,12.77
2023-04-30T02:26:09.046Z,14.13
2023-04-30T02:28:36.001Z,12.50
2023-04-30T02:31:02.423Z,13.25
2023-04-30T02:33:28.875Z,11.93
2023-04-30T02:35:55.421Z,12.13
2023-04-30T02:38:21.887Z,12.57
2023-04-30T02:40:48.269Z,12.00
2023-04-30T02:43:14.663Z,10.95
2023-04-30T02:45:41.510Z,11.52
2023-04-30T02:48:08.094Z,11.52
2023-04-30T02:50:34.533Z,11.35
2023-04-30T02:53:00.945Z,12.15
2023-04-30T02:55:27.404Z,11.52
2023-04-30T02:57:53.848Z,10.57
2023-04-30T03:00:20.458Z,13.68
2023-04-30T03:02:47.015Z,14.93
2023-04-30T03:05:15.017Z,13.48
2023-04-30T03:07:41.909Z,13.25
2023-04-30T03:10:08.968Z,13.63
2023-04-30T03:12:35.355Z,14.50
2023-04-30T03:15:01.775Z,15.18
2023-04-30T03:17:28.192Z,13.20
2023-04-30T03:19:54.802Z,10.30
2023-04-30T03:22:23.707Z,6.10
2023-04-30T03:24:50.087Z,6.90
2023-04-30T03:27:16.944Z,8.75
2023-04-30T03:29:43.335Z,6.35
2023-04-30T03:32:09.734Z,6.78
2023-04-30T03:34:36.121Z,7.13
2023-04-30T03:37:03.801Z,8.52
2023-04-30T03:39:30.306Z,8.82
2023-04-30T03:41:56.671Z,11.00
2023-04-30T03:44:23.215Z,12.23
2023-04-30T03:46:49.630Z,12.57
2023-04-30T03:49:16.282Z,11.05
2023-04-30T03:51:42.802Z,10.93
2023-04-30T03:54:09.347Z,11.18
2023-04-30T03:56:36.549Z,10.95
2023-04-30T03:59:02.989Z,9.95
2023-04-30T04:01:29.757Z,11.02
2023-04-30T04:03:56.214Z,10.43
2023-04-30T04:06:22.824Z,11.15
2023-04-30T04:08:49.274Z,11.10
2023-04-30T04:11:15.805Z,11.20
2023-04-30T04:13:42.180Z,11.68
2023-04-30T04:16:09.489Z,11.10
2023-04-30T04:18:36.509Z,11.73
2023-04-30T04:21:02.986Z,11.85
2023-04-30T04:23:29.408Z,12.13
2023-04-30T04:25:57.400Z,11.15
2023-04-30T04:28:23.889Z,11.95
2023-04-30T04:30:50.245Z,11.45
2023-04-30T04:33:17.150Z,11.93
2023-04-30T04:35:43.539Z,12.13
2023-04-30T04:38:09.917Z,13.77
2023-04-30T04:40:37.181Z,13.18
2023-04-30T04:43:03.684Z,12.77
2023-04-30T04:45:30.056Z,13.90
2023-04-30T04:47:56.488Z,14.40
2023-04-30T04:50:22.990Z,14.00
2023-04-30T04:52:49.399Z,13.50
2023-04-30T04:55:16.072Z,13.48
2023-04-30T04:57:42.985Z,12.63
2023-04-30T05:00:10.395Z,12.93
2023-04-30T05:02:36.864Z,13.57
2023-04-30T05:05:03.385Z,12.40
2023-04-30T05:07:29.936Z,12.02
2023-04-30T05:09:56.768Z,11.13
2023-04-30T05:12:23.445Z,12.73
2023-04-30T05:14:51.166Z,13.80
2023-04-30T05:17:17.562Z,13.50
2023-04-30T05:19:44.101Z,13.65
2023-04-30T05:22:10.790Z,14.30
2023-04-30T05:24:37.186Z,14.40
2023-04-30T05:27:05.040Z,15.05
2023-04-30T05:29:31.712Z,16.02
2023-04-30T05:31:58.157Z,18.23
2023-04-30T05:34:24.629Z,17.88
2023-04-30T05:36:51.050Z,18.38
2023-04-30T05:39:17.517Z,16.88
2023-04-30T05:41:43.986Z,18.20
2023-04-30T05:44:10.564Z,17.95
2023-04-30T05:46:37.046Z,15.80
2023-04-30T05:49:03.457Z,16.80
2023-04-30T05:51:29.902Z,20.70
2023-04-30T05:53:57.471Z,19.95
2023-04-30T05:56:24.807Z,19.60
2023-04-30T05:58:52.454Z,19.48
2023-04-30T06:01:22.222Z,19.27
2023-04-30T06:03:48.684Z,17.95
2023-04-30T06:06:15.286Z,20.20
2023-04-30T06:08:45.358Z,18.60
2023-04-30T06:11:12.960Z,18.05
2023-04-30T06:13:39.850Z,17.35
2023-04-30T06:16:08.086Z,18.63
2023-04-30T06:18:34.592Z,17.92
2023-04-30T06:21:00.992Z,16.27
2023-04-30T06:23:27.350Z,15.20
2023-04-30T06:25:53.713Z,16.13
2023-04-30T06:28:20.172Z,15.55
2023-04-30T06:30:47.452Z,15.15
2023-04-30T06:33:13.817Z,14.88
2023-04-30T06:35:40.470Z,16.52
2023-04-30T06:38:08.018Z,15.20
2023-04-30T06:40:34.808Z,15.80
2023-04-30T06:43:01.279Z,15.63
2023-04-30T06:45:28.754Z,14.50
2023-04-30T06:47:55.169Z,15.10
2023-04-30T06:50:21.811Z,14.10
2023-04-30T06:52:48.498Z,14.75
2023-04-30T06:55:14.873Z,14.70
2023-04-30T06:57:41.262Z,14.05
2023-04-30T07:00:08.820Z,14.52
2023-04-30T07:02:35.953Z,15.88
2023-04-30T07:05:02.643Z,16.30
2023-04-30T07:07:29.096Z,16.48
2023-04-30T07:09:55.624Z,17.00
2023-04-30T07:12:22.483Z,16.42
2023-04-30T07:14:48.950Z,16.55
2023-04-30T07:17:15.356Z,15.40
2023-04-30T07:19:41.949Z,16.13
2023-04-30T07:22:08.337Z,16.08
2023-04-30T07:24:34.697Z,15.90
2023-04-30T07:27:03.572Z,15.70
2023-04-30T07:29:30.302Z,16.23
2023-04-30T07:31:56.883Z,15.90
2023-04-30T07:34:23.382Z,15.63
2023-04-30T07:36:49.785Z,15.13
2023-04-30T07:39:16.832Z,14.18
2023-04-30T07:41:43.596Z,14.63
2023-04-30T07:44:11.506Z,14.57
2023-04-30T07:46:38.097Z,15.15
2023-04-30T07:49:04.673Z,13.80
2023-04-30T07:51:32.838Z,14.73
2023-04-30T07:54:00.644Z,14.63
2023-04-30T07:56:27.238Z,15.27
2023-04-30T07:58:53.610Z,13.98
2023-04-30T08:01:19.993Z,12.15
2023-04-30T08:03:46.601Z,14.15
2023-04-30T08:06:13.160Z,15.40
2023-04-30T08:08:39.667Z,16.33
2023-04-30T08:11:06.157Z,13.15
2023-04-30T08:13:32.598Z,12.60
2023-04-30T08:15:59.031Z,10.63
2023-04-30T08:18:25.412Z,11.25
2023-04-30T08:20:51.823Z,11.20
2023-04-30T08:23:18.197Z,10.48
2023-04-30T08:25:44.704Z,10.70
2023-04-30T08:28:11.106Z,10.43
2023-04-30T08:30:37.506Z,11.57
2023-04-30T08:33:04.036Z,10.52
2023-04-30T08:35:30.550Z,11.55
2023-04-30T08:37:57.145Z,11.02
2023-04-30T08:40:33.785Z,8.75
2023-04-30T08:43:11.530Z,8.43
2023-04-30T08:45:37.999Z,9.25
2023-04-30T08:48:05.358Z,10.07
2023-04-30T08:50:31.846Z,11.40
2023-04-30T08:52:59.245Z,9.85
2023-04-30T08:55:27.475Z,9.15
2023-04-30T08:57:54.172Z,8.27
2023-04-30T09:00:21.003Z,10.07
2023-04-30T09:02:48.324Z,8.38
2023-04-30T09:05:15.876Z,8.48
2023-04-30T09:07:52.002Z,8.38
2023-04-30T09:10:27.752Z,8.02
2023-04-30T09:13:05.287Z,7.97
2023-04-30T09:15:32.328Z,8.52
2023-04-30T09:18:18.324Z,6.60
2023-04-30T09:21:01.950Z,6.35
2023-04-30T09:23:29.137Z,6.28
2023-04-30T09:25:56.486Z,6.40
2023-04-30T09:28:24.749Z,5.82
2023-04-30T09:30:51.846Z,6.00
2023-04-30T09:33:18.265Z,6.18
2023-04-30T09:35:44.899Z,6.80
2023-04-30T09:38:31.786Z,17.45
2023-04-30T09:41:00.107Z,7.45
2023-04-30T09:43:27.714Z,6.18
2023-04-30T09:45:54.146Z,7.00
2023-04-30T09:48:24.640Z,6.05
2023-04-30T09:50:51.934Z,4.85
2023-04-30T09:53:20.739Z,5.32
2023-04-30T09:55:48.669Z,6.13
2023-04-30T09:58:16.797Z,6.60
2023-04-30T10:00:45.054Z,6.43
2023-04-30T10:03:13.475Z,5.93
2023-04-30T10:05:44.258Z,6.45
2023-04-30T10:08:14.151Z,5.95
2023-04-30T10:10:41.302Z,5.25
2023-04-30T10:13:10.828Z,5.60
2023-04-30T10:15:43.541Z,6.53
2023-04-30T10:18:15.031Z,6.05
2023-04-30T10:20:41.795Z,6.45
2023-04-30T10:23:08.548Z,6.18
2023-04-30T10:25:35.520Z,7.72
2023-04-30T10:28:04.691Z,7.35
2023-04-30T10:30:32.041Z,7.60
2023-04-30T10:33:16.305Z,6.80
2023-04-30T10:35:55.016Z,6.22
2023-04-30T10:38:24.915Z,6.82
2023-04-30T10:40:58.188Z,5.40
2023-04-30T10:43:25.400Z,5.72
2023-04-30T10:45:52.041Z,5.28
2023-04-30T10:48:25.414Z,6.00
2023-04-30T10:50:53.517Z,5.25
2023-04-30T10:53:20.794Z,5.47
2023-04-30T10:56:08.847Z,4.65
2023-04-30T10:58:37.074Z,5.03
2023-04-30T11:01:11.329Z,5.43
2023-04-30T11:03:40.820Z,4.82
2023-04-30T11:06:14.623Z,5.03
2023-04-30T11:08:46.107Z,3.90
2023-04-30T11:11:18.492Z,5.20
2023-04-30T11:13:46.318Z,4.70
2023-04-30T11:16:13.171Z,4.65
2023-04-30T11:18:45.648Z,5.13
2023-04-30T11:21:12.559Z,5.13
2023-04-30T11:23:43.380Z,5.20
2023-04-30T11:26:10.480Z,4.57
2023-04-30T11:28:37.956Z,5.10
2023-04-30T11:31:04.941Z,5.15
2023-04-30T11:33:32.415Z,5.53
2023-04-30T11:36:00.140Z,5.68
2023-04-30T11:38:29.553Z,5.63
2023-04-30T11:40:57.416Z,4.95
2023-04-30T11:43:30.989Z,4.80
2023-04-30T11:46:09.314Z,4.95
2023-04-30T11:48:37.903Z,5.95
2023-04-30T11:51:05.536Z,4.90
2023-04-30T11:53:32.830Z,4.90
2023-04-30T11:56:03.607Z,4.25
2023-04-30T11:58:34.296Z,4.88
2023-04-30T12:01:01.367Z,4.78
2023-04-30T12:03:27.949Z,5.07
2023-04-30T12:05:54.631Z,4.95
2023-04-30T12:08:21.024Z,4.18
2023-04-30T12:10:47.562Z,3.30
2023-04-30T12:13:14.641Z,3.92
2023-04-30T12:15:40.992Z,3.45
2023-04-30T12:18:13.419Z,3.90
2023-04-30T12:20:40.478Z,4.40
2023-04-30T12:23:07.583Z,2.97
2023-04-30T12:25:40.606Z,3.10
2023-04-30T12:28:06.989Z,2.38
2023-04-30T12:30:33.553Z,3.22
2023-04-30T12:33:00.820Z,3.72
2023-04-30T12:35:29.322Z,3.83
2023-04-30T12:38:06.994Z,3.65
2023-04-30T12:40:33.683Z,3.03
2023-04-30T12:43:05.122Z,2.88
2023-04-30T12:45:44.666Z,2.53
2023-04-30T12:48:11.670Z,3.20
2023-04-30T12:50:39.170Z,2.55
2023-04-30T12:53:07.422Z,2.22
2023-04-30T12:55:35.180Z,2.40
2023-04-30T12:58:06.991Z,2.75
2023-04-30T13:00:44.239Z,2.58
2023-04-30T13:03:12.155Z,3.75
2023-04-30T13:05:40.043Z,3.30
2023-04-30T13:08:06.495Z,2.47
2023-04-30T13:10:32.996Z,2.58
2023-04-30T13:12:59.992Z,2.33
2023-04-30T13:15:26.439Z,2.38
2023-04-30T13:17:53.815Z,3.15
2023-04-30T13:20:20.233Z,2.10
2023-04-30T13:22:46.584Z,2.85
2023-04-30T13:25:12.988Z,2.53
2023-04-30T13:27:39.610Z,2.70
2023-04-30T13:30:06.600Z,2.90
2023-04-30T13:32:33.449Z,2.67
2023-04-30T13:34:59.830Z,3.30
2023-04-30T13:37:26.627Z,3.67
2023-04-30T13:39:53.442Z,3.90
2023-04-30T13:42:20.146Z,2.42
2023-04-30T13:44:48.628Z,2.50
2023-04-30T13:47:15.101Z,2.08
2023-04-30T13:49:41.506Z,2.70
2023-04-30T13:52:07.980Z,2.15
2023-04-30T13:54:34.371Z,1.95
2023-04-30T13:57:00.835Z,1.75
2023-04-30T13:59:27.333Z,2.05
2023-04-30T14:01:53.744Z,1.98
2023-04-30T14:04:20.301Z,2.35
2023-04-30T14:06:48.908Z,2.70
2023-04-30T14:09:15.433Z,2.45
2023-04-30T14:11:42.527Z,2.22
2023-04-30T14:14:09.107Z,1.83
2023-04-30T14:16:35.543Z,1.90
2023-04-30T14:19:01.973Z,2.05
2023-04-30T14:21:28.608Z,2.00
2023-04-30T14:23:55.561Z,2.45
2023-04-30T14:26:22.022Z,2.15
2023-04-30T14:28:48.429Z,2.83
2023-04-30T14:31:14.797Z,2.35
2023-04-30T14:33:41.197Z,2.40
2023-04-30T14:36:08.002Z,2.55
2023-04-30T14:38:34.626Z,2.60
2023-04-30T14:41:01.042Z,2.42
2023-04-30T14:43:27.410Z,2.47
2023-04-30T14:45:54.175Z,2.17
2023-04-30T14:48:20.776Z,2.50
2023-04-30T14:50:47.204Z,2.30
2023-04-30T14:53:14.247Z,2.13
2023-04-30T14:55:40.652Z,1.73
2023-04-30T14:58:07.112Z,2.40
2023-04-30T15:00:33.548Z,2.65
2023-04-30T15:03:00.127Z,2.30
2023-04-30T15:05:26.665Z,1.90
2023-04-30T15:07:53.409Z,2.28
2023-04-30T15:10:19.850Z,2.67
2023-04-30T15:12:46.222Z,2.30
2023-04-30T15:15:13.029Z,2.30
2023-04-30T15:17:39.673Z,2.28
2023-04-30T15:20:06.970Z,1.88
2023-04-30T15:22:33.427Z,1.98
2023-04-30T15:25:00.022Z,2.20
2023-04-30T15:27:28.071Z,1.75
2023-04-30T15:29:54.613Z,1.67
2023-04-30T15:32:21.127Z,2.03
2023-04-30T15:34:47.535Z,1.63
2023-04-30T15:37:13.926Z,1.60
2023-04-30T15:39:40.305Z,2.55
2023-04-30T15:42:06.677Z,2.03
2023-04-30T15:44:33.296Z,2.80
2023-04-30T15:46:59.841Z,2.40
2023-04-30T15:49:26.238Z,1.70
2023-04-30T15:51:52.642Z,1.73
2023-04-30T15:54:19.087Z,1.55
2023-04-30T15:56:45.688Z,1.48
2023-04-30T15:59:16.963Z,1.42
2023-04-30T16:01:44.826Z,1.40
2023-04-30T16:04:11.964Z,1.17
2023-04-30T16:06:38.442Z,1.17
2023-04-30T16:09:07.490Z,1.50
2023-04-30T16:11:34.896Z,1.40
2023-04-30T16:14:01.851Z,1.20
2023-04-30T16:16:29.072Z,1.15
2023-04-30T16:18:55.537Z,1.20
2023-04-30T16:21:23.667Z,1.67
2023-04-30T16:23:50.437Z,1.63
2023-04-30T16:26:19.766Z,1.30
2023-04-30T16:28:47.111Z,1.40
2023-04-30T16:31:15.435Z,1.60
2023-04-30T16:33:42.514Z,1.02
2023-04-30T16:36:09.921Z,1.02
2023-04-30T16:38:36.902Z,2.28
2023-04-30T16:41:03.599Z,3.55
2023-04-30T16:43:30.057Z,1.40
2023-04-30T16:45:56.557Z,2.00
2023-04-30T16:48:22.987Z,1.30
2023-04-30T16:50:49.373Z,1.55
2023-04-30T16:53:15.816Z,1.67
2023-04-30T16:55:43.138Z,1.90
2023-04-30T16:58:09.515Z,1.58
2023-04-30T17:00:36.626Z,1.38
2023-04-30T17:03:04.650Z,1.70
2023-04-30T17:05:31.255Z,1.60
2023-04-30T17:07:57.790Z,1.90
2023-04-30T17:10:25.435Z,2.30
2023-04-30T17:12:52.256Z,1.70
2023-04-30T17:15:20.151Z,1.70
2023-04-30T17:17:46.606Z,1.77
2023-04-30T17:20:13.098Z,1.70
2023-04-30T17:22:40.121Z,1.88
2023-04-30T17:25:06.718Z,2.20
2023-04-30T17:27:33.093Z,1.88
2023-04-30T17:29:59.573Z,1.80
2023-04-30T17:32:26.420Z,2.38
2023-04-30T17:34:52.998Z,1.70
2023-04-30T17:37:19.426Z,1.98
2023-04-30T17:39:46.344Z,1.88
2023-04-30T17:42:15.655Z,3.80
2023-04-30T17:44:42.137Z,2.75
2023-04-30T17:47:08.503Z,1.90
2023-04-30T17:49:34.945Z,4.03
2023-04-30T17:52:01.468Z,2.88
2023-04-30T17:54:30.951Z,2.22
2023-04-30T17:56:58.972Z,2.55
2023-04-30T17:59:27.550Z,2.05
2023-04-30T18:01:54.107Z,2.00
2023-04-30T18:04:20.629Z,1.90
2023-04-30T18:06:47.484Z,2.70
2023-04-30T18:09:14.711Z,2.33
2023-04-30T18:11:41.103Z,2.30
2023-04-30T18:14:07.869Z,2.10
2023-04-30T18:16:34.790Z,2.25
2023-04-30T18:19:01.267Z,2.50
2023-04-30T18:21:27.761Z,2.22
2023-04-30T18:23:54.926Z,2.10
2023-04-30T18:26:22.169Z,2.22
2023-04-30T18:28:48.685Z,2.80
2023-04-30T18:31:15.129Z,2.22
2023-04-30T18:33:41.915Z,2.17
2023-04-30T18:36:08.322Z,2.10
2023-04-30T18:38:34.859Z,2.20
2023-04-30T18:41:02.265Z,1.98
2023-04-30T18:43:28.711Z,2.33
2023-04-30T18:45:55.118Z,2.38
2023-04-30T18:48:22.938Z,2.50
2023-04-30T18:50:50.020Z,2.40
2023-04-30T18:53:17.070Z,2.20
2023-04-30T18:55:46.569Z,2.70
2023-04-30T18:58:12.981Z,2.58
2023-04-30T19:00:42.975Z,2.70
2023-04-30T19:03:09.933Z,2.70
2023-04-30T19:05:36.422Z,2.42
2023-04-30T19:08:03.204Z,2.78
2023-04-30T19:10:29.780Z,2.67
2023-04-30T19:12:56.234Z,2.50
2023-04-30T19:15:24.752Z,2.85
2023-04-30T19:17:51.204Z,3.10
2023-04-30T19:20:17.837Z,3.00
2023-04-30T19:22:44.209Z,2.70
2023-04-30T19:25:10.844Z,2.97
2023-04-30T19:27:37.313Z,2.75
2023-04-30T19:30:03.918Z,3.05
2023-04-30T19:32:30.353Z,2.80
2023-04-30T19:34:58.365Z,3.78
2023-04-30T19:37:25.120Z,2.88
2023-04-30T19:39:51.548Z,2.92
2023-04-30T19:42:17.948Z,3.28
2023-04-30T19:44:44.316Z,3.70
2023-04-30T19:47:10.687Z,4.32
2023-04-30T19:49:37.053Z,4.25
2023-04-30T19:52:03.545Z,3.22
2023-04-30T19:54:29.967Z,3.50
2023-04-30T19:56:57.802Z,4.07
2023-04-30T19:59:26.623Z,2.97
2023-04-30T20:01:53.478Z,4.22
2023-04-30T20:04:20.032Z,2.92
2023-04-30T20:06:47.385Z,3.20
2023-04-30T20:09:14.984Z,3.20
2023-04-30T20:11:41.374Z,3.28
2023-04-30T20:14:08.116Z,3.22
2023-04-30T20:16:34.544Z,3.00
2023-04-30T20:19:01.083Z,3.50
2023-04-30T20:21:27.750Z,3.20
2023-04-30T20:23:54.164Z,3.58
2023-04-30T20:26:21.474Z,3.15
2023-04-30T20:28:48.327Z,2.83
2023-04-30T20:31:15.059Z,3.10
2023-04-30T20:33:42.228Z,3.30
2023-04-30T20:36:08.710Z,3.72
2023-04-30T20:38:35.371Z,3.53
2023-04-30T20:41:02.072Z,3.38
2023-04-30T20:43:28.758Z,3.58
2023-04-30T20:45:58.873Z,4.82
2023-04-30T20:48:26.264Z,5.00
2023-04-30T20:50:52.687Z,5.43
2023-04-30T20:53:19.722Z,5.57
2023-04-30T20:55:46.276Z,5.82
2023-04-30T20:58:12.694Z,6.03
2023-04-30T21:00:39.167Z,4.80
2023-04-30T21:03:05.978Z,5.00
2023-04-30T21:05:32.755Z,4.88
2023-04-30T21:08:01.269Z,4.25
2023-04-30T21:10:28.554Z,6.53
2023-04-30T21:12:54.927Z,4.55
2023-04-30T21:15:21.405Z,5.07
2023-04-30T21:17:48.292Z,6.22
2023-04-30T21:20:14.872Z,5.60
2023-04-30T21:22:41.354Z,5.88
2023-04-30T21:25:10.635Z,4.50
2023-04-30T21:27:37.006Z,3.78
2023-04-30T21:30:03.752Z,3.83
2023-04-30T21:32:30.216Z,4.25
2023-04-30T21:34:56.625Z,4.28
2023-04-30T21:37:22.980Z,4.20
2023-04-30T21:39:49.372Z,4.57
2023-04-30T21:42:15.892Z,3.90
2023-04-30T21:44:42.266Z,3.97
2023-04-30T21:47:08.642Z,4.40
2023-04-30T21:49:35.645Z,4.88
2023-04-30T21:52:04.296Z,5.40
2023-04-30T21:54:30.681Z,5.50
2023-04-30T21:56:57.050Z,5.78
2023-04-30T21:59:23.557Z,5.82
2023-04-30T22:01:50.040Z,5.85
2023-04-30T22:04:16.495Z,5.97
2023-04-30T22:06:42.944Z,5.28
2023-04-30T22:09:09.452Z,5.10
2023-04-30T22:11:35.888Z,4.80
2023-04-30T22:14:03.968Z,5.07
2023-04-30T22:16:30.425Z,4.85
2023-04-30T22:18:58.796Z,5.15
2023-04-30T22:21:25.735Z,4.97
2023-04-30T22:23:52.118Z,5.15
2023-04-30T22:26:18.492Z,4.07
2023-04-30T22:28:44.903Z,4.57
2023-04-30T22:31:11.343Z,4.60
2023-04-30T22:33:38.056Z,4.30
2023-04-30T22:36:08.225Z,4.45
2023-04-30T22:38:35.226Z,5.47
2023-04-30T22:41:03.642Z,4.72
2023-04-30T22:43:30.574Z,4.72
2023-04-30T22:45:58.572Z,5.07
2023-04-30T22:48:26.692Z,4.78
2023-04-30T22:50:53.573Z,5.70
2023-04-30T22:53:19.959Z,5.45
2023-04-30T22:55:46.395Z,5.28
2023-04-30T22:58:12.864Z,6.10
2023-04-30T23:00:39.282Z,4.88
2023-04-30T23:03:05.771Z,5.68
2023-04-30T23:05:32.205Z,5.93
2023-04-30T23:07:58.584Z,6.57
2023-04-30T23:10:25.035Z,6.80
2023-04-30T23:12:55.197Z,6.82
2023-04-30T23:15:21.744Z,6.32
2023-04-30T23:17:48.144Z,6.35
2023-04-30T23:20:15.431Z,6.15
2023-04-30T23:22:41.827Z,6.32
2023-04-30T23:25:08.226Z,5.35
2023-04-30T23:27:34.607Z,6.05
2023-04-30T23:30:01.030Z,7.07
2023-04-30T23:32:27.796Z,6.18
2023-04-30T23:34:54.366Z,6.15
2023-04-30T23:37:20.933Z,6.47
2023-04-30T23:39:47.303Z,7.07
2023-04-30T23:42:13.906Z,6.75
2023-04-30T23:44:40.311Z,6.65
2023-04-30T23:47:07.045Z,6.40
2023-04-30T23:49:33.446Z,7.20
2023-04-30T23:51:59.871Z,7.30
2023-04-30T23:54:26.258Z,6.10
2023-04-30T23:56:53.199Z,6.15
2023-04-30T23:59:19.616Z,6.43
